Time;durP1;ratioP1;P1;durP2;ratioP2;P2;SDS_P1;SDS_P2;PMS_P1;PMS_P2;Temp;Humidity;BMP_temperature;BMP_pressure;BME280_temperature;BME280_humidity;BME280_pressure;Samples;Min_cycle;Max_cycle;Signal;HPM_P1;HPM_P2
2023/11/27 00:01:41;;;;;;;13.10;8.07;;;;;;;;;;5063957;28;20036;-77
2023/11/27 00:04:07;;;;;;;13.55;8.38;;;;;;;;;;5066391;28;20025;-77
2023/11/27 00:06:32;;;;;;;12.82;8.35;;;;;;;;;;5061518;28;20047;-77
2023/11/27 00:08:57;;;;;;;13.88;8.68;;;;;;;;;;5052332;28;20498;-77
2023/11/27 00:11:23;;;;;;;14.07;8.43;;;;;;;;;;5071592;28;20116;-77
2023/11/27 00:13:48;;;;;;;11.20;8.02;;;;;;;;;;5068043;28;20157;-77
2023/11/27 00:16:15;;;;;;;13.73;8.30;;;;;;;;;;5046498;28;20410;-76
2023/11/27 00:18:40;;;;;;;16.80;9.18;;;;;;;;;;5063381;28;20032;-77
2023/11/27 00:21:06;;;;;;;16.67;8.80;;;;;;;;;;5077908;28;20035;-77
2023/11/27 00:23:32;;;;;;;14.82;8.50;;;;;;;;;;5071791;28;20127;-77
2023/11/27 00:25:57;;;;;;;16.02;8.55;;;;;;;;;;5063591;28;20036;-77
2023/11/27 00:28:22;;;;;;;14.98;9.30;;;;;;;;;;5062711;28;20048;-84
2023/11/27 00:30:48;;;;;;;12.50;8.02;;;;;;;;;;5069025;28;20025;-83
2023/11/27 00:33:14;;;;;;;13.00;8.05;;;;;;;;;;5043619;28;20057;-84
2023/11/27 00:35:40;;;;;;;14.57;7.53;;;;;;;;;;5068608;28;20064;-84
2023/11/27 00:38:05;;;;;;;12.70;7.47;;;;;;;;;;5067684;28;20056;-84
2023/11/27 00:40:31;;;;;;;11.73;8.25;;;;;;;;;;5066054;28;20501;-84
2023/11/27 00:42:56;;;;;;;13.75;7.70;;;;;;;;;;5080169;28;20032;-84
2023/11/27 00:45:21;;;;;;;14.88;7.78;;;;;;;;;;5047607;28;20032;-84
2023/11/27 00:47:47;;;;;;;11.68;7.35;;;;;;;;;;5049163;28;20031;-83
2023/11/27 00:50:12;;;;;;;13.52;7.68;;;;;;;;;;5067282;28;20032;-84
2023/11/27 00:52:38;;;;;;;14.25;7.53;;;;;;;;;;5051265;28;20123;-83
2023/11/27 00:55:04;;;;;;;11.75;7.43;;;;;;;;;;5069674;28;20060;-83
2023/11/27 00:57:30;;;;;;;12.77;6.78;;;;;;;;;;5070218;28;20028;-84
2023/11/27 00:59:56;;;;;;;11.63;7.07;;;;;;;;;;5053559;28;20082;-84
2023/11/27 01:02:21;;;;;;;10.82;6.90;;;;;;;;;;5061340;28;20032;-84
2023/11/27 01:04:47;;;;;;;12.65;7.10;;;;;;;;;;5038143;28;20402;-84
2023/11/27 01:07:12;;;;;;;13.98;6.75;;;;;;;;;;5055214;28;20035;-83
2023/11/27 01:09:39;;;;;;;14.55;7.25;;;;;;;;;;5054419;28;20109;-83
2023/11/27 01:12:05;;;;;;;13.30;7.35;;;;;;;;;;5066654;28;20036;-83
2023/11/27 01:14:31;;;;;;;12.52;7.50;;;;;;;;;;5064861;28;20565;-83
2023/11/27 01:16:56;;;;;;;12.13;6.53;;;;;;;;;;5054522;28;20056;-83
2023/11/27 01:19:22;;;;;;;11.10;6.45;;;;;;;;;;5049259;28;20422;-83
2023/11/27 01:21:52;;;;;;;11.90;6.70;;;;;;;;;;5055436;28;20032;-84
2023/11/27 01:24:18;;;;;;;12.40;6.20;;;;;;;;;;5066478;28;20129;-83
2023/11/27 01:26:43;;;;;;;11.05;6.40;;;;;;;;;;5062327;28;20497;-84
2023/11/27 01:29:09;;;;;;;10.85;6.20;;;;;;;;;;5067035;28;20036;-83
2023/11/27 01:31:34;;;;;;;10.43;6.28;;;;;;;;;;5064700;28;20032;-83
2023/11/27 01:34:00;;;;;;;12.13;6.55;;;;;;;;;;5053222;28;20039;-83
2023/11/27 01:36:25;;;;;;;13.63;6.50;;;;;;;;;;5069233;28;20037;-79
2023/11/27 01:38:50;;;;;;;11.13;6.22;;;;;;;;;;5053805;28;20032;-77
2023/11/27 01:41:16;;;;;;;11.82;6.88;;;;;;;;;;5048794;28;20082;-77
2023/11/27 01:43:41;;;;;;;14.75;5.63;;;;;;;;;;5063429;28;20094;-77
2023/11/27 01:46:26;;;;;;;11.73;6.07;;;;;;;;;;5062725;28;20120;-77
2023/11/27 01:48:56;;;;;;;12.38;5.97;;;;;;;;;;5064792;28;20032;-77
2023/11/27 01:51:23;;;;;;;9.55;6.30;;;;;;;;;;5061132;28;20494;-77
2023/11/27 01:53:50;;;;;;;11.02;6.13;;;;;;;;;;5066767;28;20044;-77
2023/11/27 01:56:20;;;;;;;9.63;5.82;;;;;;;;;;5060866;28;20032;-77
2023/11/27 01:58:47;;;;;;;12.77;5.70;;;;;;;;;;5060209;28;20039;-77
2023/11/27 02:01:13;;;;;;;10.68;6.32;;;;;;;;;;5083445;28;20029;-77
2023/11/27 02:03:38;;;;;;;9.10;5.70;;;;;;;;;;5069524;28;20033;-77
2023/11/27 02:06:04;;;;;;;9.75;5.80;;;;;;;;;;5082977;28;20033;-77
2023/11/27 02:08:31;;;;;;;11.50;5.85;;;;;;;;;;5065732;28;20024;-77
2023/11/27 02:10:57;;;;;;;10.23;6.20;;;;;;;;;;5066185;28;20372;-77
2023/11/27 02:13:24;;;;;;;11.55;5.95;;;;;;;;;;5053413;28;20020;-77
2023/11/27 02:15:51;;;;;;;11.93;6.53;;;;;;;;;;5063728;28;20024;-76
2023/11/27 02:18:16;;;;;;;12.90;6.43;;;;;;;;;;5068390;28;20028;-76
2023/11/27 02:20:42;;;;;;;11.88;6.22;;;;;;;;;;5060843;28;20475;-77
2023/11/27 02:23:12;;;;;;;10.65;6.45;;;;;;;;;;5064278;28;20028;-77
2023/11/27 02:25:38;;;;;;;14.07;6.80;;;;;;;;;;5061800;28;20463;-76
2023/11/27 02:28:03;;;;;;;13.48;7.50;;;;;;;;;;5054448;28;20040;-76
2023/11/27 02:30:29;;;;;;;11.00;6.90;;;;;;;;;;5060959;28;20024;-77
2023/11/27 02:32:55;;;;;;;11.32;6.43;;;;;;;;;;5064982;28;20028;-77
2023/11/27 02:35:21;;;;;;;12.07;6.53;;;;;;;;;;5064376;28;20937;-76
2023/11/27 02:37:46;;;;;;;12.63;6.70;;;;;;;;;;5063725;28;20116;-77
2023/11/27 02:40:12;;;;;;;11.18;6.85;;;;;;;;;;5065350;28;20127;-76
2023/11/27 02:42:39;;;;;;;11.20;6.90;;;;;;;;;;5065260;28;20479;-76
2023/11/27 02:45:06;;;;;;;11.45;6.53;;;;;;;;;;5061438;28;20037;-77
2023/11/27 02:47:31;;;;;;;12.00;6.97;;;;;;;;;;5058111;28;20025;-77
2023/11/27 02:49:57;;;;;;;10.25;6.40;;;;;;;;;;5076379;28;20367;-77
2023/11/27 02:52:23;;;;;;;9.95;6.30;;;;;;;;;;5067700;28;20098;-77
2023/11/27 02:54:50;;;;;;;11.88;5.78;;;;;;;;;;5065952;28;20097;-77
2023/11/27 02:57:16;;;;;;;13.52;6.47;;;;;;;;;;5053322;28;20051;-77
2023/11/27 02:59:41;;;;;;;9.07;6.25;;;;;;;;;;5060910;28;20394;-76
2023/11/27 03:02:07;;;;;;;11.02;6.32;;;;;;;;;;5059886;28;20119;-77
2023/11/27 03:04:34;;;;;;;9.32;6.60;;;;;;;;;;5056023;28;20025;-77
2023/11/27 03:07:00;;;;;;;8.90;5.80;;;;;;;;;;5060153;28;20025;-77
2023/11/27 03:09:26;;;;;;;11.73;6.15;;;;;;;;;;5060827;28;20032;-77
2023/11/27 03:11:51;;;;;;;8.98;5.78;;;;;;;;;;5058468;28;20048;-77
2023/11/27 03:14:17;;;;;;;10.10;5.55;;;;;;;;;;5062419;28;20032;-77
2023/11/27 03:16:42;;;;;;;9.32;5.43;;;;;;;;;;5047914;28;20032;-77
2023/11/27 03:19:08;;;;;;;10.52;5.45;;;;;;;;;;5077198;28;20032;-77
2023/11/27 03:21:35;;;;;;;8.80;5.07;;;;;;;;;;5060273;28;20072;-77
2023/11/27 03:24:01;;;;;;;9.52;4.90;;;;;;;;;;5066307;28;20032;-77
2023/11/27 03:26:26;;;;;;;9.30;5.90;;;;;;;;;;5065650;28;20032;-77
2023/11/27 03:28:53;;;;;;;10.43;5.22;;;;;;;;;;5064057;28;20379;-77
2023/11/27 03:31:18;;;;;;;10.73;5.25;;;;;;;;;;5074090;28;20040;-77
2023/11/27 03:33:44;;;;;;;8.63;4.90;;;;;;;;;;5065273;28;20038;-78
2023/11/27 03:36:09;;;;;;;8.27;5.00;;;;;;;;;;5063471;28;20442;-77
2023/11/27 03:38:35;;;;;;;9.30;5.00;;;;;;;;;;5059915;28;20457;-78
2023/11/27 03:41:03;;;;;;;9.65;5.10;;;;;;;;;;5045751;28;20398;-77
2023/11/27 03:43:28;;;;;;;9.98;4.80;;;;;;;;;;5071708;28;20501;-78
2023/11/27 03:45:54;;;;;;;7.82;4.45;;;;;;;;;;5047377;28;20028;-77
2023/11/27 03:48:19;;;;;;;7.78;4.95;;;;;;;;;;5058480;28;20032;-77
2023/11/27 03:50:45;;;;;;;10.20;5.20;;;;;;;;;;5071253;28;20040;-78
2023/11/27 03:53:10;;;;;;;8.00;4.55;;;;;;;;;;5042931;28;20029;-77
2023/11/27 03:55:35;;;;;;;10.95;5.20;;;;;;;;;;5063861;28;20119;-77
2023/11/27 03:58:01;;;;;;;9.07;4.65;;;;;;;;;;5030198;28;20425;-79
2023/11/27 04:00:26;;;;;;;10.65;4.97;;;;;;;;;;5058283;28;20593;-77
2023/11/27 04:02:53;;;;;;;9.60;5.40;;;;;;;;;;5048133;28;20577;-78
2023/11/27 04:05:19;;;;;;;9.43;5.65;;;;;;;;;;5060453;28;20094;-77
2023/11/27 04:07:44;;;;;;;13.75;5.85;;;;;;;;;;5062863;28;20398;-78
2023/11/27 04:10:15;;;;;;;8.48;5.10;;;;;;;;;;5046035;28;20111;-78
2023/11/27 04:12:43;;;;;;;7.18;4.60;;;;;;;;;;5062220;28;20024;-77
2023/11/27 04:15:09;;;;;;;8.25;5.70;;;;;;;;;;5046403;28;20025;-77
2023/11/27 04:17:35;;;;;;;10.05;5.45;;;;;;;;;;5047896;28;20020;-77
2023/11/27 04:20:05;;;;;;;9.27;5.53;;;;;;;;;;5043390;28;20036;-77
2023/11/27 04:22:31;;;;;;;9.35;4.90;;;;;;;;;;5057902;28;20086;-77
2023/11/27 04:24:58;;;;;;;9.13;4.82;;;;;;;;;;5060151;28;20056;-77
2023/11/27 04:27:23;;;;;;;8.20;5.50;;;;;;;;;;5063045;28;20040;-78
2023/11/27 04:29:49;;;;;;;8.98;5.47;;;;;;;;;;5095317;28;20515;-77
2023/11/27 04:32:14;;;;;;;9.52;5.18;;;;;;;;;;5062387;28;20028;-77
2023/11/27 04:34:40;;;;;;;7.45;4.75;;;;;;;;;;5049656;28;20677;-77
2023/11/27 04:37:07;;;;;;;8.23;4.90;;;;;;;;;;5046200;28;20518;-77
2023/11/27 04:39:32;;;;;;;6.47;4.13;;;;;;;;;;5059345;28;20033;-77
2023/11/27 04:41:58;;;;;;;7.88;4.63;;;;;;;;;;5047453;28;20102;-77
2023/11/27 04:44:23;;;;;;;8.75;4.75;;;;;;;;;;5063440;28;20033;-77
2023/11/27 04:46:52;;;;;;;9.40;4.70;;;;;;;;;;5048970;28;20025;-77
2023/11/27 04:49:18;;;;;;;8.38;5.15;;;;;;;;;;5059494;28;20021;-77
2023/11/27 04:51:43;;;;;;;8.85;5.03;;;;;;;;;;5073169;28;20039;-77
2023/11/27 04:54:09;;;;;;;6.82;4.10;;;;;;;;;;5057936;28;20029;-77
2023/11/27 04:56:34;;;;;;;7.25;4.35;;;;;;;;;;5060146;28;20039;-77
2023/11/27 04:59:00;;;;;;;6.60;4.15;;;;;;;;;;5058484;28;20036;-77
2023/11/27 05:01:26;;;;;;;6.85;3.95;;;;;;;;;;5065941;28;20032;-77
2023/11/27 05:03:51;;;;;;;6.70;4.20;;;;;;;;;;5058524;28;20040;-77
2023/11/27 05:06:17;;;;;;;6.82;4.22;;;;;;;;;;5080443;28;20371;-77
2023/11/27 05:08:42;;;;;;;6.80;3.38;;;;;;;;;;5046750;28;20040;-77
2023/11/27 05:11:15;;;;;;;5.15;3.70;;;;;;;;;;5066385;28;20024;-77
2023/11/27 05:13:41;;;;;;;8.43;3.47;;;;;;;;;;5061862;28;20063;-77
2023/11/27 05:16:07;;;;;;;6.00;3.75;;;;;;;;;;5056529;28;20063;-77
2023/11/27 05:18:33;;;;;;;6.93;3.47;;;;;;;;;;5055807;28;20085;-77
2023/11/27 05:20:58;;;;;;;5.13;3.13;;;;;;;;;;5062454;28;20506;-77
2023/11/27 05:23:24;;;;;;;5.68;3.55;;;;;;;;;;5046613;28;20637;-78
2023/11/27 05:25:49;;;;;;;5.80;3.35;;;;;;;;;;5048655;28;20458;-76
2023/11/27 05:28:14;;;;;;;5.13;3.17;;;;;;;;;;5063169;28;20097;-77
2023/11/27 05:30:40;;;;;;;7.35;3.13;;;;;;;;;;5075012;28;20037;-77
2023/11/27 05:33:05;;;;;;;5.60;3.38;;;;;;;;;;5061386;28;20062;-78
2023/11/27 05:35:31;;;;;;;5.15;3.25;;;;;;;;;;5058678;28;20079;-77
2023/11/27 05:37:57;;;;;;;4.30;2.63;;;;;;;;;;5058308;28;20497;-77
2023/11/27 05:40:22;;;;;;;4.55;2.95;;;;;;;;;;5047442;28;20481;-77
2023/11/27 05:42:48;;;;;;;4.88;2.50;;;;;;;;;;5047306;28;20031;-77
2023/11/27 05:45:13;;;;;;;4.45;2.47;;;;;;;;;;5053114;28;20504;-77
2023/11/27 05:47:39;;;;;;;4.05;2.63;;;;;;;;;;5067445;28;20032;-77
2023/11/27 05:50:06;;;;;;;4.20;2.40;;;;;;;;;;5047926;28;20036;-77
2023/11/27 05:52:32;;;;;;;4.00;2.60;;;;;;;;;;5067108;28;20059;-78
2023/11/27 05:54:59;;;;;;;4.03;2.47;;;;;;;;;;5066194;28;20024;-77
2023/11/27 05:57:24;;;;;;;4.57;2.53;;;;;;;;;;5063091;28;20053;-77
2023/11/27 05:59:50;;;;;;;5.07;2.78;;;;;;;;;;5081293;28;20037;-77
2023/11/27 06:02:15;;;;;;;5.55;2.60;;;;;;;;;;5032755;28;20060;-77
2023/11/27 06:04:43;;;;;;;4.65;2.83;;;;;;;;;;5062797;28;20036;-77
2023/11/27 06:07:08;;;;;;;4.53;2.70;;;;;;;;;;5062985;28;20028;-77
2023/11/27 06:09:34;;;;;;;4.05;2.63;;;;;;;;;;5051728;28;20420;-77
2023/11/27 06:12:00;;;;;;;5.13;2.55;;;;;;;;;;5051351;28;20048;-77
2023/11/27 06:14:25;;;;;;;5.80;2.70;;;;;;;;;;5063320;28;20036;-77
2023/11/27 06:16:51;;;;;;;4.13;2.55;;;;;;;;;;5063644;28;20059;-83
2023/11/27 06:19:16;;;;;;;4.15;2.60;;;;;;;;;;5077921;28;20032;-84
2023/11/27 06:21:41;;;;;;;5.03;2.72;;;;;;;;;;5061930;28;20074;-83
2023/11/27 06:24:08;;;;;;;6.28;2.83;;;;;;;;;;5044783;28;20390;-84
2023/11/27 06:26:34;;;;;;;6.35;2.90;;;;;;;;;;5064566;28;20133;-77
2023/11/27 06:28:59;;;;;;;4.50;2.60;;;;;;;;;;5098657;28;20486;-78
2023/11/27 06:31:25;;;;;;;4.55;2.65;;;;;;;;;;5063088;28;20039;-77
2023/11/27 06:33:51;;;;;;;5.47;2.72;;;;;;;;;;5067587;28;20028;-77
2023/11/27 06:36:17;;;;;;;7.18;3.30;;;;;;;;;;5060643;28;20026;-77
2023/11/27 06:38:42;;;;;;;4.00;2.50;;;;;;;;;;5057795;28;20044;-77
2023/11/27 06:41:07;;;;;;;6.60;3.13;;;;;;;;;;5048991;28;20079;-77
2023/11/27 06:43:34;;;;;;;5.15;3.10;;;;;;;;;;5049724;28;20044;-77
2023/11/27 06:45:59;;;;;;;8.02;3.03;;;;;;;;;;5081043;28;20489;-77
2023/11/27 06:48:25;;;;;;;5.35;2.78;;;;;;;;;;5061716;28;20098;-77
2023/11/27 06:50:51;;;;;;;7.30;3.08;;;;;;;;;;5052655;28;20498;-77
2023/11/27 06:53:17;;;;;;;6.90;3.00;;;;;;;;;;5030739;28;20051;-78
2023/11/27 06:55:42;;;;;;;5.50;3.20;;;;;;;;;;5075588;28;20044;-78
2023/11/27 06:58:08;;;;;;;4.65;3.10;;;;;;;;;;5062233;28;20024;-78
2023/11/27 07:00:33;;;;;;;4.57;2.60;;;;;;;;;;5063399;28;20089;-77
2023/11/27 07:02:59;;;;;;;5.00;3.17;;;;;;;;;;5079613;28;20506;-77
2023/11/27 07:05:24;;;;;;;7.80;3.20;;;;;;;;;;5062849;28;20040;-78
2023/11/27 07:07:50;;;;;;;4.10;2.72;;;;;;;;;;5038798;28;20067;-77
2023/11/27 07:10:15;;;;;;;5.90;3.15;;;;;;;;;;5069824;28;20056;-77
2023/11/27 07:12:40;;;;;;;6.60;3.13;;;;;;;;;;5082711;28;20453;-77
2023/11/27 07:15:09;;;;;;;5.00;3.20;;;;;;;;;;5048383;28;20115;-77
2023/11/27 07:17:35;;;;;;;6.90;3.40;;;;;;;;;;5065592;28;20120;-78
2023/11/27 07:20:01;;;;;;;5.47;3.20;;;;;;;;;;5043099;28;20119;-77
2023/11/27 07:22:26;;;;;;;5.82;3.05;;;;;;;;;;5063416;28;20025;-77
2023/11/27 07:24:53;;;;;;;4.40;2.75;;;;;;;;;;5037046;28;20029;-78
2023/11/27 07:27:18;;;;;;;5.20;3.40;;;;;;;;;;5048736;28;20033;-83
2023/11/27 07:29:44;;;;;;;6.60;3.53;;;;;;;;;;5066512;28;20124;-84
2023/11/27 07:32:10;;;;;;;4.93;3.20;;;;;;;;;;5067679;28;20512;-82
2023/11/27 07:34:35;;;;;;;5.68;3.30;;;;;;;;;;5063452;28;20039;-83
2023/11/27 07:37:01;;;;;;;5.43;3.13;;;;;;;;;;5049973;28;20440;-84
2023/11/27 07:39:26;;;;;;;4.55;3.00;;;;;;;;;;5050511;28;20111;-84
2023/11/27 07:41:52;;;;;;;5.78;3.42;;;;;;;;;;5077999;28;20044;-84
2023/11/27 07:44:18;;;;;;;5.47;3.25;;;;;;;;;;5063005;28;20040;-84
2023/11/27 07:46:44;;;;;;;5.50;3.05;;;;;;;;;;5047840;28;20037;-84
2023/11/27 07:49:10;;;;;;;5.50;3.30;;;;;;;;;;5078427;28;20027;-83
2023/11/27 07:51:36;;;;;;;4.72;2.85;;;;;;;;;;5063885;28;20088;-84
2023/11/27 07:54:02;;;;;;;4.55;3.10;;;;;;;;;;5048923;28;20029;-85
2023/11/27 07:56:28;;;;;;;7.03;3.67;;;;;;;;;;5076842;28;20045;-84
2023/11/27 07:58:56;;;;;;;6.40;3.78;;;;;;;;;;5074158;28;20059;-84
2023/11/27 08:01:22;;;;;;;6.28;3.70;;;;;;;;;;5061815;28;20123;-85
2023/11/27 08:03:48;;;;;;;8.15;3.85;;;;;;;;;;5079870;28;20112;-84
2023/11/27 08:06:17;;;;;;;7.13;3.83;;;;;;;;;;5049409;28;20035;-84
2023/11/27 08:08:43;;;;;;;6.05;3.47;;;;;;;;;;5068246;28;20074;-84
2023/11/27 08:11:09;;;;;;;5.38;3.47;;;;;;;;;;5067217;28;20591;-84
2023/11/27 08:13:36;;;;;;;6.88;3.83;;;;;;;;;;5067362;28;20047;-84
2023/11/27 08:16:01;;;;;;;4.70;3.40;;;;;;;;;;5065900;28;20028;-84
2023/11/27 08:18:26;;;;;;;6.10;3.60;;;;;;;;;;5052362;28;20548;-84
2023/11/27 08:20:52;;;;;;;7.47;3.60;;;;;;;;;;5064444;28;20059;-84
2023/11/27 08:23:18;;;;;;;5.30;3.30;;;;;;;;;;5067028;28;20024;-84
2023/11/27 08:25:45;;;;;;;5.72;3.60;;;;;;;;;;5062183;28;20058;-85
2023/11/27 08:28:11;;;;;;;5.60;3.63;;;;;;;;;;5052554;28;20119;-84
2023/11/27 08:30:37;;;;;;;6.25;3.72;;;;;;;;;;5049728;28;20139;-84
2023/11/27 08:33:02;;;;;;;5.15;3.33;;;;;;;;;;5067689;28;20043;-84
2023/11/27 08:35:29;;;;;;;5.03;3.33;;;;;;;;;;5049961;28;20036;-85
2023/11/27 08:37:55;;;;;;;5.05;3.60;;;;;;;;;;5051678;28;20162;-84
2023/11/27 08:40:21;;;;;;;5.50;3.67;;;;;;;;;;5050043;28;20057;-84
2023/11/27 08:42:46;;;;;;;5.40;3.42;;;;;;;;;;5043495;28;20119;-83
2023/11/27 08:45:18;;;;;;;7.47;3.72;;;;;;;;;;5049604;28;20044;-84
2023/11/27 08:47:50;;;;;;;4.82;3.35;;;;;;;;;;5062364;28;20161;-79
2023/11/27 08:50:18;;;;;;;5.57;3.78;;;;;;;;;;5083058;28;20033;-79
2023/11/27 08:52:44;;;;;;;6.15;3.65;;;;;;;;;;5059356;28;20047;-78
2023/11/27 08:55:10;;;;;;;5.72;3.72;;;;;;;;;;5063502;28;20501;-79
2023/11/27 08:57:35;;;;;;;6.65;3.78;;;;;;;;;;5057706;28;20112;-79
2023/11/27 09:00:14;;;;;;;6.13;4.20;;;;;;;;;;5060607;28;20025;-78
2023/11/27 09:02:39;;;;;;;6.15;4.13;;;;;;;;;;5067799;28;20037;-78
2023/11/27 09:05:06;;;;;;;4.82;3.63;;;;;;;;;;5079153;28;20389;-79
2023/11/27 09:07:31;;;;;;;7.38;3.88;;;;;;;;;;5066396;28;20039;-78
2023/11/27 09:09:57;;;;;;;6.40;4.05;;;;;;;;;;5058768;28;20036;-79
2023/11/27 09:12:22;;;;;;;6.15;4.03;;;;;;;;;;5056340;28;20040;-78
2023/11/27 09:14:48;;;;;;;5.55;3.88;;;;;;;;;;5063995;28;20040;-78
2023/11/27 09:17:14;;;;;;;5.68;4.15;;;;;;;;;;5072008;28;20035;-78
2023/11/27 09:19:39;;;;;;;6.13;3.97;;;;;;;;;;5070701;28;20102;-78
2023/11/27 09:22:04;;;;;;;5.20;3.45;;;;;;;;;;5053848;28;20394;-79
2023/11/27 09:24:30;;;;;;;6.07;4.10;;;;;;;;;;5052319;28;20029;-79
2023/11/27 09:26:55;;;;;;;5.90;4.18;;;;;;;;;;5082477;28;20396;-79
2023/11/27 09:29:21;;;;;;;6.22;4.18;;;;;;;;;;5047341;28;20482;-78
2023/11/27 09:31:49;;;;;;;5.13;3.88;;;;;;;;;;5068380;28;20024;-79
2023/11/27 09:34:14;;;;;;;5.03;3.70;;;;;;;;;;5069464;28;20028;-78
2023/11/27 09:36:40;;;;;;;5.50;4.00;;;;;;;;;;5061276;28;20032;-79
2023/11/27 09:39:06;;;;;;;5.40;4.05;;;;;;;;;;5064075;28;20560;-79
2023/11/27 09:41:32;;;;;;;5.72;3.83;;;;;;;;;;5073103;28;20032;-79
2023/11/27 09:43:59;;;;;;;5.53;3.75;;;;;;;;;;5067210;28;20032;-79
2023/11/27 09:46:27;;;;;;;6.10;4.00;;;;;;;;;;5037298;28;20543;-79
2023/11/27 09:48:57;;;;;;;6.00;4.22;;;;;;;;;;5089291;28;20025;-79
2023/11/27 09:51:23;;;;;;;5.63;4.10;;;;;;;;;;5060409;28;20037;-78
2023/11/27 09:53:53;;;;;;;6.30;4.30;;;;;;;;;;5067556;28;20036;-79
2023/11/27 09:56:27;;;;;;;5.28;3.80;;;;;;;;;;5063882;28;20079;-78
2023/11/27 09:58:58;;;;;;;5.47;3.95;;;;;;;;;;5065726;28;20111;-78
2023/11/27 10:01:29;;;;;;;6.10;4.18;;;;;;;;;;5067555;28;20021;-79
2023/11/27 10:03:58;;;;;;;5.53;4.10;;;;;;;;;;5066561;28;20048;-79
2023/11/27 10:06:31;;;;;;;6.25;4.45;;;;;;;;;;5069239;28;20039;-79
2023/11/27 10:09:14;;;;;;;7.47;3.88;;;;;;;;;;5070718;28;20025;-79
2023/11/27 10:11:41;;;;;;;6.00;4.40;;;;;;;;;;5052818;28;20033;-79
2023/11/27 10:14:08;;;;;;;5.53;4.03;;;;;;;;;;5073683;28;20024;-79
2023/11/27 10:16:39;;;;;;;5.47;3.97;;;;;;;;;;5047038;28;20036;-79
2023/11/27 10:19:06;;;;;;;5.38;4.13;;;;;;;;;;5064632;28;20020;-78
2023/11/27 10:21:36;;;;;;;6.45;4.25;;;;;;;;;;5050596;28;20514;-78
2023/11/27 10:24:08;;;;;;;6.40;4.22;;;;;;;;;;5050981;28;20040;-79
2023/11/27 10:26:34;;;;;;;6.03;4.13;;;;;;;;;;5069485;28;20112;-79
2023/11/27 10:28:59;;;;;;;6.57;4.25;;;;;;;;;;5085913;28;20115;-79
2023/11/27 10:31:26;;;;;;;6.05;3.92;;;;;;;;;;5062748;28;20557;-79
2023/11/27 10:33:53;;;;;;;5.43;3.88;;;;;;;;;;5068726;28;20025;-79
2023/11/27 10:36:23;;;;;;;6.85;4.20;;;;;;;;;;5053480;28;20087;-79
2023/11/27 10:39:14;;;;;;;6.03;4.10;;;;;;;;;;5059398;28;20024;-79
2023/11/27 10:41:50;;;;;;;5.60;4.10;;;;;;;;;;5070292;28;20024;-79
2023/11/27 10:44:17;;;;;;;5.40;3.65;;;;;;;;;;5065593;28;20040;-79
2023/11/27 10:46:44;;;;;;;5.00;3.40;;;;;;;;;;5064990;28;20032;-79
2023/11/27 10:49:14;;;;;;;5.68;3.58;;;;;;;;;;5068761;28;20028;-79
2023/11/27 10:51:40;;;;;;;5.20;3.50;;;;;;;;;;5053929;28;20485;-79
2023/11/27 10:54:06;;;;;;;6.28;3.30;;;;;;;;;;5061254;28;20078;-79
2023/11/27 10:56:31;;;;;;;4.57;3.10;;;;;;;;;;5079525;28;20031;-86
2023/11/27 10:59:05;;;;;;;4.20;2.75;;;;;;;;;;5071004;28;20024;-85
2023/11/27 11:01:53;;;;;;;5.72;3.10;;;;;;;;;;5070981;28;20087;-85
2023/11/27 11:04:29;;;;;;;4.55;2.88;;;;;;;;;;5066829;28;20088;-84
2023/11/27 11:06:57;;;;;;;3.72;2.28;;;;;;;;;;5082237;28;20115;-84
2023/11/27 11:09:25;;;;;;;5.05;2.85;;;;;;;;;;5056687;28;20043;-84
2023/11/27 11:11:52;;;;;;;3.65;2.40;;;;;;;;;;5046962;28;20037;-84
2023/11/27 11:14:19;;;;;;;3.45;2.35;;;;;;;;;;5056847;28;20025;-84
2023/11/27 11:16:51;;;;;;;3.42;2.25;;;;;;;;;;5044390;28;20082;-84
2023/11/27 11:19:27;;;;;;;3.60;2.38;;;;;;;;;;5062771;28;20489;-80
2023/11/27 11:22:01;;;;;;;3.22;2.05;;;;;;;;;;5059999;28;20096;-84
2023/11/27 11:24:26;;;;;;;3.22;2.22;;;;;;;;;;5075906;28;20029;-84
2023/11/27 11:27:19;;;;;;;3.60;2.25;;;;;;;;;;5064081;28;20028;-84
2023/11/27 11:29:46;;;;;;;3.17;2.03;;;;;;;;;;5054255;28;20483;-83
2023/11/27 11:32:16;;;;;;;3.13;2.00;;;;;;;;;;5073717;28;20028;-84
2023/11/27 11:34:43;;;;;;;3.53;2.00;;;;;;;;;;5041243;28;20066;-84
2023/11/27 11:37:21;;;;;;;3.92;2.53;;;;;;;;;;5054739;28;20025;-84
2023/11/27 11:39:53;;;;;;;3.28;2.28;;;;;;;;;;5052505;28;20459;-83
2023/11/27 11:42:26;;;;;;;3.08;1.95;;;;;;;;;;5054193;28;20046;-84
2023/11/27 11:45:05;;;;;;;;;;;;;;;;;;5051498;28;20020;-84
2023/11/27 11:47:33;;;;;;;3.30;1.95;;;;;;;;;;5057819;28;19920;-84
2023/11/27 11:50:18;;;;;;;3.72;2.25;;;;;;;;;;5036596;28;20588;-85
2023/11/27 11:52:44;;;;;;;3.08;1.90;;;;;;;;;;5058828;28;20040;-84
2023/11/27 11:55:14;;;;;;;4.03;2.30;;;;;;;;;;5055407;28;20028;-84
2023/11/27 11:57:42;;;;;;;3.75;2.15;;;;;;;;;;5072549;28;20394;-85
2023/11/27 12:00:19;;;;;;;3.28;2.00;;;;;;;;;;5049468;28;20091;-85
2023/11/27 12:02:46;;;;;;;4.20;2.63;;;;;;;;;;5042837;28;20350;-85
2023/11/27 12:05:12;;;;;;;2.97;2.03;;;;;;;;;;5058765;28;20029;-84
2023/11/27 12:07:38;;;;;;;3.03;2.10;;;;;;;;;;5038456;28;20056;-80
2023/11/27 12:10:06;;;;;;;3.83;2.08;;;;;;;;;;5057855;28;20030;-79
2023/11/27 12:12:32;;;;;;;4.47;2.10;;;;;;;;;;5051679;28;20036;-80
2023/11/27 12:15:00;;;;;;;3.35;1.95;;;;;;;;;;5041114;28;20039;-80
2023/11/27 12:17:28;;;;;;;3.30;2.03;;;;;;;;;;5056604;28;20139;-83
2023/11/27 12:19:59;;;;;;;2.72;1.80;;;;;;;;;;5032599;28;20206;-81
2023/11/27 12:22:28;;;;;;;3.70;2.15;;;;;;;;;;5087268;28;20502;-82
2023/11/27 12:24:55;;;;;;;3.25;2.00;;;;;;;;;;5060547;28;20032;-84
2023/11/27 12:27:22;;;;;;;5.38;1.90;;;;;;;;;;5051898;28;20043;-81
2023/11/27 12:29:48;;;;;;;2.78;1.70;;;;;;;;;;5051373;28;20449;-80
2023/11/27 12:32:15;;;;;;;3.55;2.00;;;;;;;;;;5057602;28;20028;-83
2023/11/27 12:34:41;;;;;;;2.75;1.73;;;;;;;;;;5053693;28;20089;-84
2023/11/27 12:37:08;;;;;;;2.50;1.60;;;;;;;;;;5048728;28;20028;-84
2023/11/27 12:39:37;;;;;;;2.33;1.60;;;;;;;;;;5055954;28;20032;-84
2023/11/27 12:42:11;;;;;;;3.63;1.83;;;;;;;;;;5041992;28;20029;-83
2023/11/27 12:44:37;;;;;;;3.08;1.77;;;;;;;;;;5062339;28;20037;-83
2023/11/27 12:47:05;;;;;;;2.65;1.77;;;;;;;;;;5058537;28;20029;-83
2023/11/27 12:49:34;;;;;;;3.15;2.00;;;;;;;;;;5050016;28;20032;-83
2023/11/27 12:52:09;;;;;;;3.15;1.98;;;;;;;;;;5054953;28;20039;-83
2023/11/27 12:54:36;;;;;;;3.50;2.08;;;;;;;;;;5054050;28;20117;-84
2023/11/27 12:57:05;;;;;;;3.25;1.98;;;;;;;;;;5069410;28;20025;-84
2023/11/27 12:59:39;;;;;;;3.17;2.03;;;;;;;;;;5043280;28;20139;-84
2023/11/27 13:02:09;;;;;;;2.88;1.85;;;;;;;;;;5056868;28;20037;-84
2023/11/27 13:04:39;;;;;;;3.35;1.95;;;;;;;;;;5065522;28;20044;-84
2023/11/27 13:07:13;;;;;;;3.53;2.22;;;;;;;;;;5054285;28;20033;-84
2023/11/27 13:09:43;;;;;;;4.85;2.30;;;;;;;;;;5027490;28;20043;-83
2023/11/27 13:12:15;;;;;;;3.53;2.25;;;;;;;;;;5039634;28;20490;-82
2023/11/27 13:14:50;;;;;;;3.60;2.30;;;;;;;;;;5062494;28;20068;-84
2023/11/27 13:17:18;;;;;;;3.05;2.00;;;;;;;;;;5059172;28;20373;-83
2023/11/27 13:19:53;;;;;;;4.10;2.50;;;;;;;;;;5040280;28;20043;-84
2023/11/27 13:22:19;;;;;;;3.80;2.17;;;;;;;;;;5043243;28;20106;-84
2023/11/27 13:24:45;;;;;;;3.20;2.03;;;;;;;;;;5057457;28;20028;-83
2023/11/27 13:27:16;;;;;;;3.08;1.95;;;;;;;;;;5053973;28;20820;-79
2023/11/27 13:29:46;;;;;;;3.47;2.00;;;;;;;;;;5042488;28;20043;-80
2023/11/27 13:32:13;;;;;;;3.13;2.00;;;;;;;;;;5043283;28;20032;-81
2023/11/27 13:34:43;;;;;;;2.60;1.83;;;;;;;;;;5025493;28;20067;-80
2023/11/27 13:37:10;;;;;;;3.50;2.17;;;;;;;;;;5044404;28;20017;-79
2023/11/27 13:39:37;;;;;;;3.30;1.90;;;;;;;;;;5055072;28;20028;-80
2023/11/27 13:42:08;;;;;;;2.72;1.92;;;;;;;;;;5058470;28;20028;-79
2023/11/27 13:44:36;;;;;;;3.30;1.88;;;;;;;;;;5062524;28;20565;-79
2023/11/27 13:47:01;;;;;;;2.95;1.83;;;;;;;;;;5072199;28;20261;-80
2023/11/27 13:49:27;;;;;;;4.88;2.67;;;;;;;;;;5074886;28;20474;-80
2023/11/27 13:52:00;;;;;;;3.15;2.30;;;;;;;;;;5057122;28;20031;-80
2023/11/27 13:54:27;;;;;;;3.45;2.10;;;;;;;;;;5054451;28;20119;-80
2023/11/27 13:56:59;;;;;;;3.40;2.20;;;;;;;;;;5057942;28;20064;-80
2023/11/27 13:59:35;;;;;;;4.78;2.13;;;;;;;;;;5053841;28;20144;-80
2023/11/27 14:02:09;;;;;;;3.45;2.10;;;;;;;;;;5056639;28;20033;-80
2023/11/27 14:04:37;;;;;;;3.03;2.00;;;;;;;;;;5059799;28;20033;-79
2023/11/27 14:07:06;;;;;;;3.42;2.15;;;;;;;;;;5057010;28;20032;-79
2023/11/27 14:12:19;;;;;;;3.65;2.17;;;;;;;;;;5046854;28;20027;-80
2023/11/27 14:14:58;;;;;;;3.85;2.30;;;;;;;;;;5056559;28;20546;-80
2023/11/27 14:17:32;;;;;;;3.88;2.53;;;;;;;;;;5052894;28;20486;-80
2023/11/27 14:23:04;;;;;;;3.35;2.10;;;;;;;;;;5058872;28;20420;-79
2023/11/27 14:28:32;;;;;;;3.22;2.08;;;;;;;;;;5026778;28;20044;-80
2023/11/27 14:30:59;;;;;;;3.50;2.30;;;;;;;;;;5045922;28;20036;-80
2023/11/27 14:33:25;;;;;;;3.50;2.40;;;;;;;;;;5054301;28;20040;-80
2023/11/27 14:35:55;;;;;;;3.58;2.35;;;;;;;;;;5055114;28;20083;-81
2023/11/27 14:38:25;;;;;;;2.60;2.00;;;;;;;;;;5060838;28;20028;-80
2023/11/27 14:40:51;;;;;;;4.80;2.55;;;;;;;;;;5057156;28;20028;-80
2023/11/27 14:43:20;;;;;;;4.15;2.55;;;;;;;;;;5070323;28;20036;-80
2023/11/27 14:45:48;;;;;;;3.70;2.55;;;;;;;;;;5045825;28;20047;-80
2023/11/27 14:48:19;;;;;;;4.68;2.90;;;;;;;;;;5052066;28;20272;-80
2023/11/27 14:50:45;;;;;;;4.32;2.88;;;;;;;;;;5058950;28;20067;-80